sensor_id;sensor_type;location;lat;lon;timestamp;temperature;humidity
74540;SHT31;66042;51.090;-115.340;2024-03-29T00:00:05;4.21;46.89
74540;SHT31;66042;51.090;-115.340;2024-03-29T00:02:33;4.16;47.15
74540;SHT31;66042;51.090;-115.340;2024-03-29T00:05:00;4.13;47.50
74540;SHT31;66042;51.090;-115.340;2024-03-29T00:07:28;4.10;47.69
74540;SHT31;66042;51.090;-115.340;2024-03-29T00:09:55;4.07;47.74
74540;SHT31;66042;51.090;-115.340;2024-03-29T00:12:22;4.01;47.80
74540;SHT31;66042;51.090;-115.340;2024-03-29T00:14:50;3.96;48.04
74540;SHT31;66042;51.090;-115.340;2024-03-29T00:17:17;3.93;48.17
74540;SHT31;66042;51.090;-115.340;2024-03-29T00:19:44;3.90;48.28
74540;SHT31;66042;51.090;-115.340;2024-03-29T00:22:11;3.83;48.22
74540;SHT31;66042;51.090;-115.340;2024-03-29T00:24:38;3.79;48.30
74540;SHT31;66042;51.090;-115.340;2024-03-29T00:27:05;3.75;48.46
74540;SHT31;66042;51.090;-115.340;2024-03-29T00:29:32;3.69;48.32
74540;SHT31;66042;51.090;-115.340;2024-03-29T00:31:59;3.62;48.33
74540;SHT31;66042;51.090;-115.340;2024-03-29T00:34:26;3.53;48.37
74540;SHT31;66042;51.090;-115.340;2024-03-29T00:36:54;3.47;48.45
74540;SHT31;66042;51.090;-115.340;2024-03-29T00:39:21;3.41;48.56
74540;SHT31;66042;51.090;-115.340;2024-03-29T00:41:48;3.37;48.84
74540;SHT31;66042;51.090;-115.340;2024-03-29T00:44:15;3.34;48.87
74540;SHT31;66042;51.090;-115.340;2024-03-29T00:46:43;3.30;48.77
74540;SHT31;66042;51.090;-115.340;2024-03-29T00:49:09;3.24;48.85
74540;SHT31;66042;51.090;-115.340;2024-03-29T00:51:37;3.20;48.96
74540;SHT31;66042;51.090;-115.340;2024-03-29T00:54:05;3.15;49.15
74540;SHT31;66042;51.090;-115.340;2024-03-29T00:56:32;3.11;49.09
74540;SHT31;66042;51.090;-115.340;2024-03-29T00:58:59;3.05;49.13
74540;SHT31;66042;51.090;-115.340;2024-03-29T01:01:27;3.00;49.41
74540;SHT31;66042;51.090;-115.340;2024-03-29T01:03:54;2.96;49.51
74540;SHT31;66042;51.090;-115.340;2024-03-29T01:06:21;2.92;49.61
74540;SHT31;66042;51.090;-115.340;2024-03-29T01:08:48;2.91;50.09
74540;SHT31;66042;51.090;-115.340;2024-03-29T01:11:15;2.93;50.31
74540;SHT31;66042;51.090;-115.340;2024-03-29T01:13:42;2.92;50.40
74540;SHT31;66042;51.090;-115.340;2024-03-29T01:16:09;2.87;50.53
74540;SHT31;66042;51.090;-115.340;2024-03-29T01:18:36;2.83;50.72
74540;SHT31;66042;51.090;-115.340;2024-03-29T01:21:04;2.81;50.83
74540;SHT31;66042;51.090;-115.340;2024-03-29T01:23:31;2.79;50.76
74540;SHT31;66042;51.090;-115.340;2024-03-29T01:25:58;2.78;50.91
74540;SHT31;66042;51.090;-115.340;2024-03-29T01:28:27;2.76;50.94
74540;SHT31;66042;51.090;-115.340;2024-03-29T01:30:54;2.72;51.19
74540;SHT31;66042;51.090;-115.340;2024-03-29T01:33:24;2.73;51.24
74540;SHT31;66042;51.090;-115.340;2024-03-29T01:35:52;2.77;51.27
74540;SHT31;66042;51.090;-115.340;2024-03-29T01:38:20;2.78;51.17
74540;SHT31;66042;51.090;-115.340;2024-03-29T01:40:48;2.74;51.10
74540;SHT31;66042;51.090;-115.340;2024-03-29T01:43:16;2.68;50.98
74540;SHT31;66042;51.090;-115.340;2024-03-29T01:45:43;2.58;51.10
74540;SHT31;66042;51.090;-115.340;2024-03-29T01:48:15;2.56;51.22
74540;SHT31;66042;51.090;-115.340;2024-03-29T01:50:44;2.52;51.19
74540;SHT31;66042;51.090;-115.340;2024-03-29T01:53:13;2.47;51.05
74540;SHT31;66042;51.090;-115.340;2024-03-29T01:55:42;2.41;51.20
74540;SHT31;66042;51.090;-115.340;2024-03-29T01:58:09;2.38;51.42
74540;SHT31;66042;51.090;-115.340;2024-03-29T02:01:10;2.33;51.35
74540;SHT31;66042;51.090;-115.340;2024-03-29T02:03:32;2.24;51.47
74540;SHT31;66042;51.090;-115.340;2024-03-29T02:06:00;2.20;51.80
74540;SHT31;66042;51.090;-115.340;2024-03-29T02:08:27;2.17;51.78
74540;SHT31;66042;51.090;-115.340;2024-03-29T02:10:56;2.11;51.91
74540;SHT31;66042;51.090;-115.340;2024-03-29T02:13:24;2.04;52.03
74540;SHT31;66042;51.090;-115.340;2024-03-29T02:15:51;1.99;52.22
74540;SHT31;66042;51.090;-115.340;2024-03-29T02:18:18;1.94;52.43
74540;SHT31;66042;51.090;-115.340;2024-03-29T02:20:45;1.89;52.63
74540;SHT31;66042;51.090;-115.340;2024-03-29T02:23:29;1.83;52.80
74540;SHT31;66042;51.090;-115.340;2024-03-29T02:26:01;1.80;52.84
74540;SHT31;66042;51.090;-115.340;2024-03-29T02:28:29;1.77;52.92
74540;SHT31;66042;51.090;-115.340;2024-03-29T02:30:57;1.73;53.02
74540;SHT31;66042;51.090;-115.340;2024-03-29T02:33:24;1.69;53.11
74540;SHT31;66042;51.090;-115.340;2024-03-29T02:35:51;1.63;53.16
74540;SHT31;66042;51.090;-115.340;2024-03-29T02:38:17;1.58;53.37
74540;SHT31;66042;51.090;-115.340;2024-03-29T02:40:45;1.57;53.43
74540;SHT31;66042;51.090;-115.340;2024-03-29T02:43:12;1.55;53.50
74540;SHT31;66042;51.090;-115.340;2024-03-29T02:45:39;1.53;53.57
74540;SHT31;66042;51.090;-115.340;2024-03-29T02:48:06;1.50;53.62
74540;SHT31;66042;51.090;-115.340;2024-03-29T02:50:34;1.47;53.63
74540;SHT31;66042;51.090;-115.340;2024-03-29T02:53:01;1.43;53.69
74540;SHT31;66042;51.090;-115.340;2024-03-29T02:55:28;1.40;53.82
74540;SHT31;66042;51.090;-115.340;2024-03-29T02:57:55;1.37;53.76
74540;SHT31;66042;51.090;-115.340;2024-03-29T03:00:22;1.33;53.81
74540;SHT31;66042;51.090;-115.340;2024-03-29T03:02:48;1.31;53.91
74540;SHT31;66042;51.090;-115.340;2024-03-29T03:05:15;1.25;53.95
74540;SHT31;66042;51.090;-115.340;2024-03-29T03:07:42;1.18;53.93
74540;SHT31;66042;51.090;-115.340;2024-03-29T03:10:32;1.12;54.02
74540;SHT31;66042;51.090;-115.340;2024-03-29T03:13:18;1.12;54.17
74540;SHT31;66042;51.090;-115.340;2024-03-29T03:15:44;1.09;54.09
74540;SHT31;66042;51.090;-115.340;2024-03-29T03:18:12;1.04;54.19
74540;SHT31;66042;51.090;-115.340;2024-03-29T03:20:39;1.00;54.27
74540;SHT31;66042;51.090;-115.340;2024-03-29T03:23:06;0.99;54.36
74540;SHT31;66042;51.090;-115.340;2024-03-29T03:25:34;0.96;54.48
74540;SHT31;66042;51.090;-115.340;2024-03-29T03:28:01;0.94;54.45
74540;SHT31;66042;51.090;-115.340;2024-03-29T03:30:28;0.90;54.37
74540;SHT31;66042;51.090;-115.340;2024-03-29T03:32:55;0.84;54.47
74540;SHT31;66042;51.090;-115.340;2024-03-29T03:35:22;0.78;54.70
74540;SHT31;66042;51.090;-115.340;2024-03-29T03:37:49;0.79;54.85
74540;SHT31;66042;51.090;-115.340;2024-03-29T03:40:16;0.78;54.82
74540;SHT31;66042;51.090;-115.340;2024-03-29T03:42:43;0.75;54.76
74540;SHT31;66042;51.090;-115.340;2024-03-29T03:45:11;0.73;54.86
74540;SHT31;66042;51.090;-115.340;2024-03-29T03:47:39;0.70;54.98
74540;SHT31;66042;51.090;-115.340;2024-03-29T03:50:05;0.69;55.02
74540;SHT31;66042;51.090;-115.340;2024-03-29T03:52:33;0.65;55.12
74540;SHT31;66042;51.090;-115.340;2024-03-29T03:54:59;0.61;55.16
74540;SHT31;66042;51.090;-115.340;2024-03-29T03:57:27;0.60;55.27
74540;SHT31;66042;51.090;-115.340;2024-03-29T03:59:53;0.59;55.30
74540;SHT31;66042;51.090;-115.340;2024-03-29T04:02:20;0.56;55.31
74540;SHT31;66042;51.090;-115.340;2024-03-29T04:04:47;0.51;55.29
74540;SHT31;66042;51.090;-115.340;2024-03-29T04:07:14;0.48;55.41
74540;SHT31;66042;51.090;-115.340;2024-03-29T04:09:41;0.48;55.52
74540;SHT31;66042;51.090;-115.340;2024-03-29T04:12:08;0.49;55.52
74540;SHT31;66042;51.090;-115.340;2024-03-29T04:14:35;0.48;55.54
74540;SHT31;66042;51.090;-115.340;2024-03-29T04:17:02;0.46;55.45
74540;SHT31;66042;51.090;-115.340;2024-03-29T04:19:29;0.46;55.48
74540;SHT31;66042;51.090;-115.340;2024-03-29T04:21:56;0.44;55.55
74540;SHT31;66042;51.090;-115.340;2024-03-29T04:24:23;0.44;55.51
74540;SHT31;66042;51.090;-115.340;2024-03-29T04:26:50;0.41;55.54
74540;SHT31;66042;51.090;-115.340;2024-03-29T04:29:17;0.40;55.56
74540;SHT31;66042;51.090;-115.340;2024-03-29T04:31:45;0.39;55.62
74540;SHT31;66042;51.090;-115.340;2024-03-29T04:34:12;0.33;55.65
74540;SHT31;66042;51.090;-115.340;2024-03-29T04:36:39;0.30;55.76
74540;SHT31;66042;51.090;-115.340;2024-03-29T04:39:06;0.26;55.80
74540;SHT31;66042;51.090;-115.340;2024-03-29T04:41:33;0.18;55.86
74540;SHT31;66042;51.090;-115.340;2024-03-29T04:44:00;0.14;56.13
74540;SHT31;66042;51.090;-115.340;2024-03-29T04:46:31;0.14;56.20
74540;SHT31;66042;51.090;-115.340;2024-03-29T04:48:58;0.13;56.19
74540;SHT31;66042;51.090;-115.340;2024-03-29T04:51:25;0.11;56.30
74540;SHT31;66042;51.090;-115.340;2024-03-29T04:53:52;0.11;56.32
74540;SHT31;66042;51.090;-115.340;2024-03-29T04:56:20;0.12;56.41
74540;SHT31;66042;51.090;-115.340;2024-03-29T04:58:47;0.18;56.49
74540;SHT31;66042;51.090;-115.340;2024-03-29T05:01:13;0.25;56.23
74540;SHT31;66042;51.090;-115.340;2024-03-29T05:03:40;0.28;56.20
74540;SHT31;66042;51.090;-115.340;2024-03-29T05:06:08;0.33;56.04
74540;SHT31;66042;51.090;-115.340;2024-03-29T05:08:35;0.33;55.99
74540;SHT31;66042;51.090;-115.340;2024-03-29T05:11:02;0.29;55.96
74540;SHT31;66042;51.090;-115.340;2024-03-29T05:13:30;0.25;56.04
74540;SHT31;66042;51.090;-115.340;2024-03-29T05:15:57;0.21;56.20
74540;SHT31;66042;51.090;-115.340;2024-03-29T05:18:24;0.17;56.28
74540;SHT31;66042;51.090;-115.340;2024-03-29T05:20:51;0.13;56.33
74540;SHT31;66042;51.090;-115.340;2024-03-29T05:23:18;0.12;56.40
74540;SHT31;66042;51.090;-115.340;2024-03-29T05:25:45;0.10;56.26
74540;SHT31;66042;51.090;-115.340;2024-03-29T05:28:14;0.08;56.14
74540;SHT31;66042;51.090;-115.340;2024-03-29T05:30:41;0.01;56.15
74540;SHT31;66042;51.090;-115.340;2024-03-29T05:33:09;-0.05;56.23
74540;SHT31;66042;51.090;-115.340;2024-03-29T05:35:36;-0.10;56.38
74540;SHT31;66042;51.090;-115.340;2024-03-29T05:38:03;-0.18;56.48
74540;SHT31;66042;51.090;-115.340;2024-03-29T05:40:31;-0.21;56.69
74540;SHT31;66042;51.090;-115.340;2024-03-29T05:42:58;-0.24;56.79
74540;SHT31;66042;51.090;-115.340;2024-03-29T05:45:29;-0.26;56.76
74540;SHT31;66042;51.090;-115.340;2024-03-29T05:47:57;-0.31;56.57
74540;SHT31;66042;51.090;-115.340;2024-03-29T05:50:25;-0.38;56.79
74540;SHT31;66042;51.090;-115.340;2024-03-29T05:52:52;-0.43;56.66
74540;SHT31;66042;51.090;-115.340;2024-03-29T05:55:19;-0.47;56.70
74540;SHT31;66042;51.090;-115.340;2024-03-29T05:57:46;-0.49;56.81
74540;SHT31;66042;51.090;-115.340;2024-03-29T06:00:13;-0.51;56.73
74540;SHT31;66042;51.090;-115.340;2024-03-29T06:02:41;-0.53;56.76
74540;SHT31;66042;51.090;-115.340;2024-03-29T06:05:10;-0.52;56.87
74540;SHT31;66042;51.090;-115.340;2024-03-29T06:07:37;-0.52;56.86
74540;SHT31;66042;51.090;-115.340;2024-03-29T06:10:04;-0.50;56.75
74540;SHT31;66042;51.090;-115.340;2024-03-29T06:12:33;-0.50;56.73
74540;SHT31;66042;51.090;-115.340;2024-03-29T06:15:09;-0.49;56.73
74540;SHT31;66042;51.090;-115.340;2024-03-29T06:17:53;-0.49;56.59
74540;SHT31;66042;51.090;-115.340;2024-03-29T06:20:20;-0.51;56.45
74540;SHT31;66042;51.090;-115.340;2024-03-29T06:22:47;-0.51;56.44
74540;SHT31;66042;51.090;-115.340;2024-03-29T06:25:14;-0.52;56.36
74540;SHT31;66042;51.090;-115.340;2024-03-29T06:27:41;-0.56;56.34
74540;SHT31;66042;51.090;-115.340;2024-03-29T06:30:13;-0.61;56.25
74540;SHT31;66042;51.090;-115.340;2024-03-29T06:32:45;-0.64;56.50
74540;SHT31;66042;51.090;-115.340;2024-03-29T06:35:12;-0.66;56.37
74540;SHT31;66042;51.090;-115.340;2024-03-29T06:37:39;-0.67;56.37
74540;SHT31;66042;51.090;-115.340;2024-03-29T06:40:07;-0.69;56.36
74540;SHT31;66042;51.090;-115.340;2024-03-29T06:42:35;-0.70;56.28
74540;SHT31;66042;51.090;-115.340;2024-03-29T06:45:01;-0.70;56.38
74540;SHT31;66042;51.090;-115.340;2024-03-29T06:47:31;-0.72;56.41
74540;SHT31;66042;51.090;-115.340;2024-03-29T06:49:58;-0.71;56.29
74540;SHT31;66042;51.090;-115.340;2024-03-29T06:52:25;-0.73;56.06
74540;SHT31;66042;51.090;-115.340;2024-03-29T06:54:53;-0.74;56.15
74540;SHT31;66042;51.090;-115.340;2024-03-29T06:57:20;-0.74;56.33
74540;SHT31;66042;51.090;-115.340;2024-03-29T06:59:50;-0.77;56.84
74540;SHT31;66042;51.090;-115.340;2024-03-29T07:02:18;-0.79;57.83
74540;SHT31;66042;51.090;-115.340;2024-03-29T07:04:45;-0.83;58.58
74540;SHT31;66042;51.090;-115.340;2024-03-29T07:07:11;-0.84;58.81
74540;SHT31;66042;51.090;-115.340;2024-03-29T07:09:39;-0.85;59.16
74540;SHT31;66042;51.090;-115.340;2024-03-29T07:12:06;-0.86;59.50
74540;SHT31;66042;51.090;-115.340;2024-03-29T07:14:33;-0.89;59.73
74540;SHT31;66042;51.090;-115.340;2024-03-29T07:17:01;-0.93;60.00
74540;SHT31;66042;51.090;-115.340;2024-03-29T07:19:28;-0.96;60.27
74540;SHT31;66042;51.090;-115.340;2024-03-29T07:21:55;-0.97;60.38
74540;SHT31;66042;51.090;-115.340;2024-03-29T07:24:22;-1.01;60.60
74540;SHT31;66042;51.090;-115.340;2024-03-29T07:26:49;-1.04;60.70
74540;SHT31;66042;51.090;-115.340;2024-03-29T07:29:16;-1.06;60.88
74540;SHT31;66042;51.090;-115.340;2024-03-29T07:31:43;-1.10;60.91
74540;SHT31;66042;51.090;-115.340;2024-03-29T07:34:10;-1.12;61.03
74540;SHT31;66042;51.090;-115.340;2024-03-29T07:36:37;-1.12;61.14
74540;SHT31;66042;51.090;-115.340;2024-03-29T07:39:06;-1.16;61.14
74540;SHT31;66042;51.090;-115.340;2024-03-29T07:41:33;-1.19;61.27
74540;SHT31;66042;51.090;-115.340;2024-03-29T07:44:00;-1.20;61.40
74540;SHT31;66042;51.090;-115.340;2024-03-29T07:46:34;-1.20;61.40
74540;SHT31;66042;51.090;-115.340;2024-03-29T07:49:03;-1.19;61.39
74540;SHT31;66042;51.090;-115.340;2024-03-29T07:51:30;-1.20;61.42
74540;SHT31;66042;51.090;-115.340;2024-03-29T07:53:57;-1.23;61.38
74540;SHT31;66042;51.090;-115.340;2024-03-29T07:56:24;-1.27;61.56
74540;SHT31;66042;51.090;-115.340;2024-03-29T07:58:54;-1.29;61.60
74540;SHT31;66042;51.090;-115.340;2024-03-29T08:01:22;-1.33;61.73
74540;SHT31;66042;51.090;-115.340;2024-03-29T08:03:52;-1.36;61.83
74540;SHT31;66042;51.090;-115.340;2024-03-29T08:06:19;-1.39;62.04
74540;SHT31;66042;51.090;-115.340;2024-03-29T08:08:49;-1.41;62.27
74540;SHT31;66042;51.090;-115.340;2024-03-29T08:11:16;-1.40;62.39
74540;SHT31;66042;51.090;-115.340;2024-03-29T08:13:43;-1.40;62.40
74540;SHT31;66042;51.090;-115.340;2024-03-29T08:16:11;-1.37;62.40
74540;SHT31;66042;51.090;-115.340;2024-03-29T08:18:42;-1.35;62.33
74540;SHT31;66042;51.090;-115.340;2024-03-29T08:21:13;-1.38;62.44
74540;SHT31;66042;51.090;-115.340;2024-03-29T08:23:40;-1.42;62.50
74540;SHT31;66042;51.090;-115.340;2024-03-29T08:26:11;-1.42;62.56
74540;SHT31;66042;51.090;-115.340;2024-03-29T08:28:38;-1.42;62.59
74540;SHT31;66042;51.090;-115.340;2024-03-29T08:31:06;-1.41;62.60
74540;SHT31;66042;51.090;-115.340;2024-03-29T08:33:36;-1.39;62.56
74540;SHT31;66042;51.090;-115.340;2024-03-29T08:36:06;-1.39;62.42
74540;SHT31;66042;51.090;-115.340;2024-03-29T08:38:34;-1.39;62.43
74540;SHT31;66042;51.090;-115.340;2024-03-29T08:41:02;-1.39;62.37
74540;SHT31;66042;51.090;-115.340;2024-03-29T08:43:29;-1.38;62.22
74540;SHT31;66042;51.090;-115.340;2024-03-29T08:45:55;-1.39;62.13
74540;SHT31;66042;51.090;-115.340;2024-03-29T08:48:23;-1.40;62.10
74540;SHT31;66042;51.090;-115.340;2024-03-29T08:50:52;-1.41;62.10
74540;SHT31;66042;51.090;-115.340;2024-03-29T08:53:19;-1.43;62.17
74540;SHT31;66042;51.090;-115.340;2024-03-29T08:55:52;-1.44;62.11
74540;SHT31;66042;51.090;-115.340;2024-03-29T08:58:19;-1.46;62.09
74540;SHT31;66042;51.090;-115.340;2024-03-29T09:00:55;-1.50;62.09
74540;SHT31;66042;51.090;-115.340;2024-03-29T09:03:23;-1.50;62.02
74540;SHT31;66042;51.090;-115.340;2024-03-29T09:05:50;-1.52;61.82
74540;SHT31;66042;51.090;-115.340;2024-03-29T09:08:18;-1.56;61.72
74540;SHT31;66042;51.090;-115.340;2024-03-29T09:10:45;-1.59;61.72
74540;SHT31;66042;51.090;-115.340;2024-03-29T09:13:13;-1.60;61.73
74540;SHT31;66042;51.090;-115.340;2024-03-29T09:15:40;-1.60;61.74
74540;SHT31;66042;51.090;-115.340;2024-03-29T09:18:07;-1.62;61.70
74540;SHT31;66042;51.090;-115.340;2024-03-29T09:20:58;-1.67;61.68
74540;SHT31;66042;51.090;-115.340;2024-03-29T09:23:26;-1.70;61.76
74540;SHT31;66042;51.090;-115.340;2024-03-29T09:25:57;-1.72;61.78
74540;SHT31;66042;51.090;-115.340;2024-03-29T09:28:24;-1.72;61.69
74540;SHT31;66042;51.090;-115.340;2024-03-29T09:30:57;-1.73;61.61
74540;SHT31;66042;51.090;-115.340;2024-03-29T09:33:25;-1.73;61.60
74540;SHT31;66042;51.090;-115.340;2024-03-29T09:35:53;-1.75;61.51
74540;SHT31;66042;51.090;-115.340;2024-03-29T09:38:21;-1.80;61.57
74540;SHT31;66042;51.090;-115.340;2024-03-29T09:40:49;-1.82;61.44
74540;SHT31;66042;51.090;-115.340;2024-03-29T09:43:28;-1.87;61.48
74540;SHT31;66042;51.090;-115.340;2024-03-29T09:45:57;-1.89;61.48
74540;SHT31;66042;51.090;-115.340;2024-03-29T09:48:25;-1.92;61.48
74540;SHT31;66042;51.090;-115.340;2024-03-29T09:50:52;-1.94;61.38
74540;SHT31;66042;51.090;-115.340;2024-03-29T09:53:23;-1.94;61.57
74540;SHT31;66042;51.090;-115.340;2024-03-29T09:55:51;-1.94;61.48
74540;SHT31;66042;51.090;-115.340;2024-03-29T09:58:18;-1.96;61.50
74540;SHT31;66042;51.090;-115.340;2024-03-29T10:00:46;-1.97;61.51
74540;SHT31;66042;51.090;-115.340;2024-03-29T10:03:13;-2.02;61.29
74540;SHT31;66042;51.090;-115.340;2024-03-29T10:05:45;-2.08;61.58
74540;SHT31;66042;51.090;-115.340;2024-03-29T10:08:13;-2.09;61.57
74540;SHT31;66042;51.090;-115.340;2024-03-29T10:10:40;-2.12;61.60
74540;SHT31;66042;51.090;-115.340;2024-03-29T10:13:08;-2.10;61.64
74540;SHT31;66042;51.090;-115.340;2024-03-29T10:15:35;-2.07;61.58
74540;SHT31;66042;51.090;-115.340;2024-03-29T10:18:04;-2.10;61.45
74540;SHT31;66042;51.090;-115.340;2024-03-29T10:20:34;-2.11;61.45
74540;SHT31;66042;51.090;-115.340;2024-03-29T10:23:02;-2.14;61.34
74540;SHT31;66042;51.090;-115.340;2024-03-29T10:25:32;-2.17;61.42
74540;SHT31;66042;51.090;-115.340;2024-03-29T10:28:02;-2.21;61.40
74540;SHT31;66042;51.090;-115.340;2024-03-29T10:30:29;-2.24;61.40
74540;SHT31;66042;51.090;-115.340;2024-03-29T10:32:57;-2.24;61.55
74540;SHT31;66042;51.090;-115.340;2024-03-29T10:35:27;-2.28;61.56
74540;SHT31;66042;51.090;-115.340;2024-03-29T10:37:54;-2.29;61.62
74540;SHT31;66042;51.090;-115.340;2024-03-29T10:40:21;-2.29;61.71
74540;SHT31;66042;51.090;-115.340;2024-03-29T10:42:49;-2.30;61.70
74540;SHT31;66042;51.090;-115.340;2024-03-29T10:45:18;-2.33;61.87
74540;SHT31;66042;51.090;-115.340;2024-03-29T10:47:49;-2.33;61.77
74540;SHT31;66042;51.090;-115.340;2024-03-29T10:50:19;-2.35;61.77
74540;SHT31;66042;51.090;-115.340;2024-03-29T10:52:48;-2.36;61.77
74540;SHT31;66042;51.090;-115.340;2024-03-29T10:55:16;-2.35;61.78
74540;SHT31;66042;51.090;-115.340;2024-03-29T10:57:44;-2.35;61.71
74540;SHT31;66042;51.090;-115.340;2024-03-29T11:00:15;-2.39;61.70
74540;SHT31;66042;51.090;-115.340;2024-03-29T11:05:45;-2.42;61.59
74540;SHT31;66042;51.090;-115.340;2024-03-29T11:08:22;-2.43;61.45
74540;SHT31;66042;51.090;-115.340;2024-03-29T11:10:53;-2.45;61.41
74540;SHT31;66042;51.090;-115.340;2024-03-29T11:16:17;-2.52;61.26
74540;SHT31;66042;51.090;-115.340;2024-03-29T11:18:46;-2.52;61.19
74540;SHT31;66042;51.090;-115.340;2024-03-29T11:21:14;-2.53;61.22
74540;SHT31;66042;51.090;-115.340;2024-03-29T11:23:50;-2.54;61.07
74540;SHT31;66042;51.090;-115.340;2024-03-29T11:26:19;-2.58;61.17
74540;SHT31;66042;51.090;-115.340;2024-03-29T11:28:50;-2.61;61.16
74540;SHT31;66042;51.090;-115.340;2024-03-29T11:31:22;-2.69;61.09
74540;SHT31;66042;51.090;-115.340;2024-03-29T11:33:50;-2.77;61.36
74540;SHT31;66042;51.090;-115.340;2024-03-29T11:36:20;-2.82;61.53
74540;SHT31;66042;51.090;-115.340;2024-03-29T11:38:58;-2.86;61.66
74540;SHT31;66042;51.090;-115.340;2024-03-29T11:41:25;-2.85;61.80
74540;SHT31;66042;51.090;-115.340;2024-03-29T11:43:54;-2.83;61.78
74540;SHT31;66042;51.090;-115.340;2024-03-29T11:46:22;-2.82;61.75
74540;SHT31;66042;51.090;-115.340;2024-03-29T11:48:50;-2.82;61.78
74540;SHT31;66042;51.090;-115.340;2024-03-29T11:51:19;-2.81;61.89
74540;SHT31;66042;51.090;-115.340;2024-03-29T11:53:49;-2.81;61.84
74540;SHT31;66042;51.090;-115.340;2024-03-29T11:56:18;-2.81;61.81
74540;SHT31;66042;51.090;-115.340;2024-03-29T11:58:45;-2.78;61.89
74540;SHT31;66042;51.090;-115.340;2024-03-29T12:01:16;-2.77;61.83
74540;SHT31;66042;51.090;-115.340;2024-03-29T12:03:44;-2.84;61.79
74540;SHT31;66042;51.090;-115.340;2024-03-29T12:06:13;-2.91;62.03
74540;SHT31;66042;51.090;-115.340;2024-03-29T12:08:42;-2.88;62.21
74540;SHT31;66042;51.090;-115.340;2024-03-29T12:11:09;-2.84;62.16
74540;SHT31;66042;51.090;-115.340;2024-03-29T12:13:36;-2.82;62.10
74540;SHT31;66042;51.090;-115.340;2024-03-29T12:16:06;-2.78;62.02
74540;SHT31;66042;51.090;-115.340;2024-03-29T12:18:34;-2.74;61.95
74540;SHT31;66042;51.090;-115.340;2024-03-29T12:21:01;-2.70;61.84
74540;SHT31;66042;51.090;-115.340;2024-03-29T12:23:29;-2.66;61.71
74540;SHT31;66042;51.090;-115.340;2024-03-29T12:25:56;-2.63;61.65
74540;SHT31;66042;51.090;-115.340;2024-03-29T12:28:25;-2.57;61.57
74540;SHT31;66042;51.090;-115.340;2024-03-29T12:30:53;-2.55;61.46
74540;SHT31;66042;51.090;-115.340;2024-03-29T12:33:20;-2.53;61.37
74540;SHT31;66042;51.090;-115.340;2024-03-29T12:35:50;-2.51;61.25
74540;SHT31;66042;51.090;-115.340;2024-03-29T12:38:20;-2.49;61.09
74540;SHT31;66042;51.090;-115.340;2024-03-29T12:40:48;-2.50;61.00
74540;SHT31;66042;51.090;-115.340;2024-03-29T12:43:20;-2.51;60.92
74540;SHT31;66042;51.090;-115.340;2024-03-29T12:45:48;-2.51;60.95
74540;SHT31;66042;51.090;-115.340;2024-03-29T12:48:20;-2.51;60.89
74540;SHT31;66042;51.090;-115.340;2024-03-29T12:50:48;-2.51;60.87
74540;SHT31;66042;51.090;-115.340;2024-03-29T12:53:16;-2.51;60.84
74540;SHT31;66042;51.090;-115.340;2024-03-29T12:55:44;-2.52;60.81
74540;SHT31;66042;51.090;-115.340;2024-03-29T12:58:13;-2.57;60.83
74540;SHT31;66042;51.090;-115.340;2024-03-29T13:00:44;-2.59;60.87
74540;SHT31;66042;51.090;-115.340;2024-03-29T13:03:11;-2.62;60.90
74540;SHT31;66042;51.090;-115.340;2024-03-29T13:05:39;-2.63;60.95
74540;SHT31;66042;51.090;-115.340;2024-03-29T13:08:13;-2.64;61.00
74540;SHT31;66042;51.090;-115.340;2024-03-29T13:10:43;-2.68;60.98
74540;SHT31;66042;51.090;-115.340;2024-03-29T13:13:11;-2.73;61.03
74540;SHT31;66042;51.090;-115.340;2024-03-29T13:15:38;-2.77;61.02
74540;SHT31;66042;51.090;-115.340;2024-03-29T13:18:08;-2.80;61.16
74540;SHT31;66042;51.090;-115.340;2024-03-29T13:20:41;-2.80;61.29
74540;SHT31;66042;51.090;-115.340;2024-03-29T13:23:08;-2.78;61.39
74540;SHT31;66042;51.090;-115.340;2024-03-29T13:25:36;-2.77;61.34
74540;SHT31;66042;51.090;-115.340;2024-03-29T13:28:03;-2.79;61.38
74540;SHT31;66042;51.090;-115.340;2024-03-29T13:30:32;-2.82;61.46
74540;SHT31;66042;51.090;-115.340;2024-03-29T13:33:02;-2.84;61.50
74540;SHT31;66042;51.090;-115.340;2024-03-29T13:35:29;-2.87;61.64
74540;SHT31;66042;51.090;-115.340;2024-03-29T13:37:58;-2.87;61.75
74540;SHT31;66042;51.090;-115.340;2024-03-29T13:40:26;-2.87;61.80
74540;SHT31;66042;51.090;-115.340;2024-03-29T13:42:54;-2.87;61.89
74540;SHT31;66042;51.090;-115.340;2024-03-29T13:45:21;-2.86;61.90
74540;SHT31;66042;51.090;-115.340;2024-03-29T13:47:51;-2.86;61.90
74540;SHT31;66042;51.090;-115.340;2024-03-29T13:50:18;-2.86;61.84
74540;SHT31;66042;51.090;-115.340;2024-03-29T13:52:46;-2.88;61.87
74540;SHT31;66042;51.090;-115.340;2024-03-29T13:55:13;-2.88;61.91
74540;SHT31;66042;51.090;-115.340;2024-03-29T13:57:40;-2.87;61.89
74540;SHT31;66042;51.090;-115.340;2024-03-29T14:00:09;-2.91;61.90
74540;SHT31;66042;51.090;-115.340;2024-03-29T14:02:40;-2.92;62.06
74540;SHT31;66042;51.090;-115.340;2024-03-29T14:05:07;-2.91;62.24
74540;SHT31;66042;51.090;-115.340;2024-03-29T14:07:34;-2.89;62.26
74540;SHT31;66042;51.090;-115.340;2024-03-29T14:10:01;-2.89;62.21
74540;SHT31;66042;51.090;-115.340;2024-03-29T14:12:31;-2.89;62.19
74540;SHT31;66042;51.090;-115.340;2024-03-29T14:14:59;-2.89;62.23
74540;SHT31;66042;51.090;-115.340;2024-03-29T14:17:26;-2.89;62.11
74540;SHT31;66042;51.090;-115.340;2024-03-29T14:19:54;-2.89;62.15
74540;SHT31;66042;51.090;-115.340;2024-03-29T14:22:21;-2.90;62.27
74540;SHT31;66042;51.090;-115.340;2024-03-29T14:24:49;-2.88;62.36
74540;SHT31;66042;51.090;-115.340;2024-03-29T14:27:16;-2.85;62.38
74540;SHT31;66042;51.090;-115.340;2024-03-29T14:29:43;-2.84;62.40
74540;SHT31;66042;51.090;-115.340;2024-03-29T14:32:11;-2.84;62.41
74540;SHT31;66042;51.090;-115.340;2024-03-29T14:34:38;-2.82;62.29
74540;SHT31;66042;51.090;-115.340;2024-03-29T14:37:12;-2.79;62.23
74540;SHT31;66042;51.090;-115.340;2024-03-29T14:39:41;-2.76;62.18
74540;SHT31;66042;51.090;-115.340;2024-03-29T14:42:09;-2.74;62.14
74540;SHT31;66042;51.090;-115.340;2024-03-29T14:44:38;-2.71;61.98
74540;SHT31;66042;51.090;-115.340;2024-03-29T14:47:06;-2.69;61.99
74540;SHT31;66042;51.090;-115.340;2024-03-29T14:49:33;-2.67;62.07
74540;SHT31;66042;51.090;-115.340;2024-03-29T14:52:00;-2.66;62.10
74540;SHT31;66042;51.090;-115.340;2024-03-29T14:54:28;-2.65;62.10
74540;SHT31;66042;51.090;-115.340;2024-03-29T14:56:55;-2.63;61.94
74540;SHT31;66042;51.090;-115.340;2024-03-29T14:59:22;-2.67;61.75
74540;SHT31;66042;51.090;-115.340;2024-03-29T15:01:49;-2.67;61.89
74540;SHT31;66042;51.090;-115.340;2024-03-29T15:04:16;-2.64;61.78